Time;durP1;ratioP1;P1;durP2;ratioP2;P2;SDS_P1;SDS_P2;PMS_P1;PMS_P2;Temp;Humidity;BMP_temperature;BMP_pressure;BME280_temperature;BME280_humidity;BME280_pressure;Samples;Min_cycle;Max_cycle;Signal;HPM_P1;HPM_P2
2022/12/13 00:00:42;;;;;;;22.73;13.73;;;3.80;99.90;;;;;;5010845;28;20041;-71
2022/12/13 00:03:51;;;;;;;23.98;13.63;;;3.80;99.90;;;;;;5010264;28;20057;-71
2022/12/13 00:06:55;;;;;;;22.42;14.07;;;3.90;99.90;;;;;;5010521;28;20053;-71
2022/12/13 00:09:58;;;;;;;26.48;15.10;;;3.90;99.90;;;;;;5010724;28;20497;-71
2022/12/13 00:13:03;;;;;;;23.98;13.57;;;3.90;99.90;;;;;;5010819;28;20078;-71
2022/12/13 00:16:11;;;;;;;22.13;13.48;;;3.90;99.90;;;;;;5010398;28;20049;-71
2022/12/13 00:19:16;;;;;;;23.67;13.75;;;3.90;99.90;;;;;;5010978;28;20053;-71
2022/12/13 00:22:21;;;;;;;26.63;17.10;;;3.90;99.90;;;;;;5010394;28;20066;-71
2022/12/13 00:25:24;;;;;;;30.02;17.27;;;4.00;99.90;;;;;;5010201;28;20121;-71
2022/12/13 00:28:28;;;;;;;50.55;31.20;;;4.00;99.90;;;;;;5010541;28;20044;-71
2022/12/13 00:31:32;;;;;;;35.33;19.15;;;4.00;99.90;;;;;;5010495;28;20500;-71
2022/12/13 00:34:36;;;;;;;20.80;12.25;;;4.00;99.90;;;;;;5012573;28;20049;-71
2022/12/13 00:37:41;;;;;;;20.00;12.25;;;4.10;99.90;;;;;;5013924;28;20048;-72
2022/12/13 00:40:48;;;;;;;19.08;12.30;;;4.10;99.90;;;;;;5014022;28;20044;-71
2022/12/13 00:43:51;;;;;;;19.67;12.40;;;4.00;99.90;;;;;;5013915;28;20056;-71
2022/12/13 00:46:57;;;;;;;22.40;12.98;;;4.00;99.90;;;;;;5013855;28;20041;-71
2022/12/13 00:50:03;;;;;;;20.77;13.32;;;4.00;99.90;;;;;;5013655;28;20475;-71
2022/12/13 00:53:08;;;;;;;25.15;13.35;;;4.10;99.90;;;;;;5013350;28;20049;-72
2022/12/13 00:56:16;;;;;;;21.88;13.18;;;4.00;99.90;;;;;;5013393;28;20543;-71
2022/12/13 00:59:20;;;;;;;19.52;11.45;;;4.00;99.90;;;;;;5013767;28;20048;-71
2022/12/13 01:02:24;;;;;;;20.13;12.82;;;4.10;99.90;;;;;;5013687;28;20100;-71
2022/12/13 01:05:28;;;;;;;25.83;16.25;;;4.10;99.90;;;;;;5012943;28;20512;-72
2022/12/13 01:08:32;;;;;;;23.25;15.52;;;4.10;99.90;;;;;;5013315;28;20392;-71
2022/12/13 01:11:36;;;;;;;22.30;12.55;;;4.20;99.90;;;;;;5013291;28;20037;-71
2022/12/13 01:14:40;;;;;;;25.55;15.50;;;4.10;99.90;;;;;;5012856;28;20361;-71
2022/12/13 01:17:45;;;;;;;24.67;16.27;;;4.20;99.90;;;;;;5013214;28;20032;-69
2022/12/13 01:21:10;;;;;;;21.20;12.13;;;4.20;99.90;;;;;;5013579;28;20367;-71
2022/12/13 01:24:14;;;;;;;21.25;11.68;;;4.20;99.90;;;;;;5012796;28;20041;-71
2022/12/13 01:27:18;;;;;;;22.63;11.98;;;4.20;99.90;;;;;;5013264;28;20061;-71
2022/12/13 01:30:22;;;;;;;22.10;11.95;;;4.20;99.90;;;;;;5013256;28;20044;-71
2022/12/13 01:33:28;;;;;;;16.20;10.63;;;4.20;99.90;;;;;;5012880;28;20499;-71
2022/12/13 01:36:32;;;;;;;20.58;12.70;;;4.10;99.90;;;;;;5012809;28;20056;-71
2022/12/13 01:39:36;;;;;;;23.27;13.82;;;4.10;99.90;;;;;;5013219;28;20052;-71
2022/12/13 01:42:41;;;;;;;23.15;13.48;;;4.10;99.90;;;;;;5013054;28;20049;-71
2022/12/13 01:45:45;;;;;;;20.67;12.20;;;4.20;99.90;;;;;;5011760;28;20049;-71
2022/12/13 01:49:06;;;;;;;23.70;12.40;;;4.20;99.90;;;;;;5012879;28;20491;-71
2022/12/13 01:52:12;;;;;;;17.73;11.93;;;4.20;99.90;;;;;;5012787;28;20484;-71
2022/12/13 01:55:18;;;;;;;16.23;9.60;;;4.30;99.90;;;;;;5012358;28;20049;-71
2022/12/13 01:58:23;;;;;;;15.48;9.10;;;4.30;99.90;;;;;;5012401;28;20057;-71
2022/12/13 02:01:28;;;;;;;19.70;10.05;;;4.30;99.90;;;;;;5012410;28;20053;-70
2022/12/13 02:05:10;;;;;;;15.93;9.23;;;4.30;99.90;;;;;;5011781;28;20041;-71
2022/12/13 02:08:14;;;;;;;18.92;10.88;;;4.30;99.90;;;;;;5012220;28;20061;-71
2022/12/13 02:11:18;;;;;;;14.57;9.13;;;4.30;99.90;;;;;;5011793;28;20057;-71
2022/12/13 02:14:22;;;;;;;15.70;9.25;;;4.30;99.90;;;;;;5021991;28;20037;-70
2022/12/13 02:17:38;;;;;;;16.88;9.75;;;4.30;99.90;;;;;;5011756;28;20049;-70
2022/12/13 02:21:11;;;;;;;15.55;9.05;;;4.40;99.90;;;;;;5022573;28;20499;-70
2022/12/13 02:25:03;;;;;;;20.27;10.18;;;4.40;99.90;;;;;;5011834;28;20056;-71
2022/12/13 02:28:44;;;;;;;18.45;9.48;;;4.40;99.90;;;;;;5011412;28;20060;-70
2022/12/13 02:31:55;;;;;;;21.85;11.20;;;4.40;99.90;;;;;;5011642;28;20053;-70
2022/12/13 02:35:09;;;;;;;;;;;4.40;99.90;;;;;;5011992;28;20041;-71
2022/12/13 02:38:39;;;;;;;18.70;10.00;;;4.40;99.90;;;;;;5013098;28;19928;-70
2022/12/13 02:41:54;;;;;;;21.80;12.93;;;4.40;99.90;;;;;;5010877;28;20404;-71
2022/12/13 02:45:16;;;;;;;18.63;10.52;;;4.30;99.90;;;;;;5010963;28;20044;-71
2022/12/13 02:48:27;;;;;;;17.95;11.73;;;4.30;99.90;;;;;;5011759;28;20052;-71
2022/12/13 02:51:31;;;;;;;19.17;11.70;;;4.30;99.90;;;;;;5011633;28;20044;-70
2022/12/13 02:54:36;;;;;;;17.92;11.52;;;4.30;99.90;;;;;;5011538;28;20244;-70
2022/12/13 02:57:43;;;;;;;20.02;12.23;;;4.30;99.90;;;;;;5010683;28;20045;-71
2022/12/13 03:01:19;;;;;;;21.20;11.30;;;4.30;99.90;;;;;;5011592;28;20461;-71
2022/12/13 03:08:42;;;;;;;14.05;8.30;;;4.30;99.90;;;;;;5011231;28;20044;-71
2022/12/13 03:15:29;;;;;;;14.25;7.93;;;4.40;99.90;;;;;;5010798;28;20061;-71
2022/12/13 03:18:34;;;;;;;14.75;8.00;;;4.30;99.90;;;;;;5010921;28;20516;-70
2022/12/13 03:21:39;;;;;;;13.80;8.20;;;4.40;99.90;;;;;;5011031;28;20528;-71
2022/12/13 03:24:45;;;;;;;15.57;9.95;;;4.40;99.90;;;;;;5010831;28;20053;-71
2022/12/13 03:27:50;;;;;;;20.08;10.80;;;4.40;99.90;;;;;;5010625;28;20048;-71
2022/12/13 03:30:54;;;;;;;20.02;10.02;;;4.30;99.90;;;;;;5010206;28;20528;-71
2022/12/13 03:33:58;;;;;;;18.77;10.25;;;4.30;99.90;;;;;;5010321;28;20388;-71
2022/12/13 03:37:03;;;;;;;16.95;8.93;;;4.20;99.90;;;;;;5010252;28;20045;-71
2022/12/13 03:40:09;;;;;;;14.18;8.60;;;4.20;99.90;;;;;;5010662;28;20049;-71
2022/12/13 03:43:13;;;;;;;14.70;7.93;;;4.10;99.90;;;;;;5010641;28;20057;-70
2022/12/13 03:46:19;;;;;;;15.82;7.57;;;4.20;99.90;;;;;;5010599;28;20056;-70
2022/12/13 03:49:24;;;;;;;12.90;7.63;;;4.20;99.90;;;;;;5010555;28;20060;-70
2022/12/13 03:52:27;;;;;;;12.30;8.05;;;4.30;99.90;;;;;;5009804;28;20053;-70
2022/12/13 03:55:33;;;;;;;12.98;8.07;;;4.20;99.90;;;;;;5010520;28;20531;-70
2022/12/13 03:58:37;;;;;;;15.23;8.05;;;4.20;99.90;;;;;;5010643;28;20065;-70
2022/12/13 04:01:41;;;;;;;11.52;7.38;;;4.20;99.90;;;;;;5010949;28;20041;-71
2022/12/13 04:04:45;;;;;;;12.23;8.75;;;4.20;99.90;;;;;;5010231;28;20052;-70
2022/12/13 04:07:49;;;;;;;14.77;8.45;;;4.10;99.90;;;;;;5010638;28;20040;-71
2022/12/13 04:10:53;;;;;;;16.27;8.50;;;4.10;99.90;;;;;;5014708;28;20591;-71
2022/12/13 04:13:57;;;;;;;11.82;7.50;;;4.10;99.90;;;;;;5014633;28;20053;-70
2022/12/13 04:17:01;;;;;;;14.45;7.72;;;4.00;99.90;;;;;;5013949;28;20056;-70
2022/12/13 04:20:06;;;;;;;12.00;7.68;;;4.10;99.90;;;;;;5014563;28;20053;-70
2022/12/13 04:23:10;;;;;;;15.68;8.48;;;4.10;99.90;;;;;;5014444;28;20048;-70
2022/12/13 04:26:14;;;;;;;12.77;8.73;;;4.10;99.90;;;;;;5014461;28;20061;-71
2022/12/13 04:29:18;;;;;;;15.10;8.50;;;4.10;99.90;;;;;;5013975;28;20503;-71
2022/12/13 04:32:22;;;;;;;14.32;8.43;;;4.10;99.90;;;;;;5014017;28;20049;-71
2022/12/13 04:35:27;;;;;;;13.63;8.32;;;4.20;99.90;;;;;;5014250;28;20049;-71
2022/12/13 04:38:31;;;;;;;13.73;7.47;;;4.20;99.90;;;;;;5013707;28;20436;-71
2022/12/13 04:41:37;;;;;;;12.82;8.57;;;4.20;99.90;;;;;;5014749;28;20056;-71
2022/12/13 04:44:41;;;;;;;10.18;6.80;;;4.20;99.90;;;;;;5013689;28;20049;-70
2022/12/13 04:47:45;;;;;;;13.18;7.70;;;4.20;99.90;;;;;;5014010;28;20049;-70
2022/12/13 04:50:49;;;;;;;11.85;7.25;;;4.20;99.90;;;;;;5013843;28;20045;-70
2022/12/13 04:53:54;;;;;;;13.60;8.00;;;4.20;99.90;;;;;;5013540;28;20052;-70
2022/12/13 04:56:58;;;;;;;10.90;7.10;;;4.20;99.90;;;;;;5013756;28;20044;-70
2022/12/13 05:00:04;;;;;;;11.35;7.65;;;4.20;99.90;;;;;;5013565;28;20049;-71
2022/12/13 05:03:08;;;;;;;11.95;7.47;;;4.20;99.90;;;;;;5013653;28;20504;-70
2022/12/13 05:06:13;;;;;;;15.40;7.63;;;4.20;99.90;;;;;;5013628;28;20049;-71
2022/12/13 05:09:17;;;;;;;12.30;7.43;;;4.20;99.90;;;;;;5013297;28;20049;-71
2022/12/13 05:12:21;;;;;;;13.30;7.97;;;4.30;99.90;;;;;;5012897;28;20056;-71
2022/12/13 05:15:25;;;;;;;11.25;7.78;;;4.30;99.90;;;;;;5013348;28;20069;-70
2022/12/13 05:18:30;;;;;;;12.95;8.20;;;4.30;99.90;;;;;;5013237;28;20385;-71
2022/12/13 05:21:35;;;;;;;12.45;8.18;;;4.30;99.90;;;;;;5011614;28;20053;-71
2022/12/13 05:24:44;;;;;;;14.90;7.72;;;4.30;99.90;;;;;;5013322;28;20057;-71
2022/12/13 05:27:48;;;;;;;11.95;7.70;;;4.40;99.90;;;;;;5013003;28;20056;-71
2022/12/13 05:31:04;;;;;;;11.70;8.23;;;4.40;99.90;;;;;;5023418;28;20048;-70
2022/12/13 05:34:09;;;;;;;14.32;7.95;;;4.40;99.90;;;;;;5012703;28;20121;-71
2022/12/13 05:37:13;;;;;;;15.38;8.38;;;4.30;99.90;;;;;;5012987;28;20053;-70
2022/12/13 05:40:17;;;;;;;12.40;8.55;;;4.30;99.90;;;;;;5012966;28;20061;-71
2022/12/13 05:43:25;;;;;;;14.48;9.05;;;4.20;99.90;;;;;;5012413;28;20060;-70
2022/12/13 05:46:30;;;;;;;14.27;8.73;;;4.30;99.90;;;;;;5011966;28;20508;-70
2022/12/13 05:49:35;;;;;;;15.40;9.35;;;4.20;99.90;;;;;;5012032;28;20080;-71
2022/12/13 05:52:39;;;;;;;13.85;8.52;;;4.20;99.90;;;;;;5013183;28;20052;-70
2022/12/13 05:55:43;;;;;;;14.52;9.35;;;4.20;99.90;;;;;;5012464;28;20092;-71
2022/12/13 05:58:47;;;;;;;14.65;9.63;;;4.20;99.90;;;;;;5012693;28;20040;-71
2022/12/13 06:01:52;;;;;;;16.20;9.38;;;4.30;99.90;;;;;;5011769;28;20041;-70
2022/12/13 06:04:56;;;;;;;14.43;8.65;;;4.30;99.90;;;;;;5011762;28;20106;-71
2022/12/13 06:08:00;;;;;;;14.55;9.30;;;4.30;99.90;;;;;;5012709;28;20057;-70
2022/12/13 06:11:06;;;;;;;15.90;9.40;;;4.30;99.90;;;;;;5012358;28;20049;-70
2022/12/13 06:14:10;;;;;;;14.80;9.20;;;4.30;99.90;;;;;;5012016;28;20045;-70
2022/12/13 06:17:14;;;;;;;13.57;8.68;;;4.20;99.90;;;;;;5012041;28;20044;-70
2022/12/13 06:20:18;;;;;;;16.42;9.35;;;4.30;99.90;;;;;;5012366;28;20053;-70
2022/12/13 06:23:22;;;;;;;16.08;8.88;;;4.20;99.90;;;;;;5012267;28;20060;-71
2022/12/13 06:26:26;;;;;;;15.77;9.43;;;4.30;99.90;;;;;;5012261;28;20044;-71
2022/12/13 06:29:31;;;;;;;12.75;8.77;;;4.30;99.90;;;;;;5012277;28;20049;-71
2022/12/13 06:32:35;;;;;;;17.92;8.90;;;4.30;99.90;;;;;;5011937;28;20053;-71
2022/12/13 06:35:39;;;;;;;20.42;9.90;;;4.40;99.90;;;;;;5011969;28;20255;-71
2022/12/13 06:38:42;;;;;;;16.10;9.07;;;4.30;99.90;;;;;;5012191;28;20385;-70
2022/12/13 06:41:47;;;;;;;21.55;15.00;;;4.20;99.90;;;;;;5012191;28;20057;-70
2022/12/13 06:44:51;;;;;;;13.02;8.75;;;4.20;99.90;;;;;;5012047;28;20049;-70
2022/12/13 06:47:57;;;;;;;22.50;12.50;;;4.20;99.90;;;;;;5022702;28;20053;-70
2022/12/13 06:51:03;;;;;;;23.35;13.43;;;4.20;99.90;;;;;;5012055;28;20045;-71
2022/12/13 06:54:07;;;;;;;23.02;14.35;;;4.30;99.90;;;;;;5011891;28;20412;-70
2022/12/13 06:57:12;;;;;;;20.42;13.07;;;4.30;99.90;;;;;;5011106;28;20045;-71
2022/12/13 07:00:16;;;;;;;24.35;12.57;;;4.30;99.90;;;;;;5011047;28;20048;-71
2022/12/13 07:03:20;;;;;;;20.63;11.85;;;4.20;99.90;;;;;;5010809;28;20500;-71
2022/12/13 07:06:25;;;;;;;18.05;9.50;;;4.20;99.90;;;;;;5010845;28;20144;-70
2022/12/13 07:09:30;;;;;;;16.23;9.93;;;4.20;99.90;;;;;;5010887;28;20045;-70
2022/12/13 07:12:33;;;;;;;16.23;9.65;;;4.20;99.90;;;;;;5011226;28;20048;-70
2022/12/13 07:15:38;;;;;;;15.77;9.30;;;4.20;99.90;;;;;;5010826;28;20040;-70
2022/12/13 07:18:42;;;;;;;16.90;9.65;;;4.30;99.90;;;;;;5011000;28;20049;-70
2022/12/13 07:21:46;;;;;;;13.55;9.48;;;4.30;99.90;;;;;;5019200;28;20040;-70
2022/12/13 07:24:50;;;;;;;16.08;9.32;;;4.40;99.90;;;;;;5028927;28;20040;-70
2022/12/13 07:27:59;;;;;;;14.43;8.98;;;4.40;99.90;;;;;;5030360;28;20048;-70
2022/12/13 07:31:07;;;;;;;12.55;8.10;;;4.50;99.90;;;;;;5030686;28;20052;-70
2022/12/13 07:34:11;;;;;;;16.60;7.78;;;4.50;99.90;;;;;;5031150;28;20120;-71
2022/12/13 07:37:15;;;;;;;11.18;7.25;;;4.50;99.90;;;;;;5029914;28;20052;-71
2022/12/13 07:40:20;;;;;;;15.07;7.78;;;4.60;99.90;;;;;;5032053;28;20342;-71
2022/12/13 07:43:24;;;;;;;11.60;7.28;;;4.60;99.90;;;;;;5042699;28;20385;-70
2022/12/13 07:46:28;;;;;;;20.02;8.38;;;4.70;99.90;;;;;;5029397;28;20048;-71
2022/12/13 07:49:32;;;;;;;12.00;7.57;;;4.70;99.90;;;;;;5027906;28;20048;-70
2022/12/13 07:52:38;;;;;;;13.77;7.88;;;4.80;99.90;;;;;;5028149;28;20045;-71
2022/12/13 07:55:42;;;;;;;11.68;6.82;;;5.00;99.90;;;;;;5021515;28;21655;-71
2022/12/13 07:58:46;;;;;;;11.68;7.03;;;5.20;99.90;;;;;;5029165;28;20048;-71
2022/12/13 08:01:49;;;;;;;10.85;6.35;;;5.30;99.90;;;;;;5034530;28;20040;-71
2022/12/13 08:04:53;;;;;;;14.00;6.47;;;5.30;99.90;;;;;;5035576;28;20474;-71
2022/12/13 08:07:59;;;;;;;15.13;7.55;;;5.30;99.90;;;;;;5020669;28;20052;-71
2022/12/13 08:11:05;;;;;;;11.13;6.55;;;5.30;99.90;;;;;;5033775;28;20056;-71
2022/12/13 08:14:10;;;;;;;14.30;8.25;;;5.40;99.90;;;;;;5023880;28;20049;-71
2022/12/13 08:17:14;;;;;;;25.92;16.88;;;5.50;99.90;;;;;;5039252;28;20051;-71
2022/12/13 08:20:18;;;;;;;12.00;7.18;;;5.60;99.90;;;;;;5035850;28;20049;-71
2022/12/13 08:23:23;;;;;;;9.85;6.18;;;5.80;99.90;;;;;;5030074;28;20052;-71
2022/12/13 08:26:27;;;;;;;11.88;6.35;;;6.00;99.90;;;;;;5041349;28;20376;-70
2022/12/13 08:29:33;;;;;;;13.15;6.28;;;6.10;99.90;;;;;;5037699;28;20056;-72
2022/12/13 08:32:37;;;;;;;9.13;5.75;;;6.20;99.90;;;;;;5031104;28;20044;-71
2022/12/13 08:35:41;;;;;;;10.05;6.55;;;6.20;99.90;;;;;;5030100;28;20039;-71
2022/12/13 08:38:46;;;;;;;12.00;6.97;;;6.10;99.90;;;;;;5022483;28;20121;-71
2022/12/13 08:41:50;;;;;;;13.43;7.20;;;6.10;99.90;;;;;;5029812;28;20044;-70
2022/12/13 08:44:56;;;;;;;10.52;5.65;;;6.10;99.90;;;;;;5021589;28;20483;-71
2022/12/13 08:48:01;;;;;;;11.70;6.65;;;6.00;99.90;;;;;;5035164;28;20045;-71
2022/12/13 08:51:07;;;;;;;10.27;5.72;;;6.00;99.90;;;;;;5029950;28;20492;-71
2022/12/13 08:54:12;;;;;;;9.05;6.03;;;5.90;99.90;;;;;;5032862;28;20045;-71
2022/12/13 08:57:17;;;;;;;7.45;5.53;;;6.00;99.90;;;;;;5045085;28;20038;-71
2022/12/13 09:00:22;;;;;;;11.18;5.72;;;6.10;99.90;;;;;;5041731;28;20042;-71
2022/12/13 09:03:27;;;;;;;10.02;5.80;;;6.30;99.90;;;;;;5033552;28;20040;-71
2022/12/13 09:06:32;;;;;;;10.57;6.40;;;6.40;99.90;;;;;;5028582;28;20045;-71
2022/12/13 09:09:36;;;;;;;9.27;6.38;;;6.60;99.90;;;;;;5039660;28;20055;-71
2022/12/13 09:12:41;;;;;;;7.75;5.55;;;6.80;99.90;;;;;;5028743;28;20039;-71
2022/12/13 09:15:46;;;;;;;11.25;6.25;;;6.90;99.90;;;;;;5030306;28;20483;-70
2022/12/13 09:18:52;;;;;;;19.80;8.82;;;7.00;99.90;;;;;;5030353;28;20045;-71
2022/12/13 09:21:56;;;;;;;12.23;7.57;;;7.00;99.90;;;;;;5034947;28;20040;-71
2022/12/13 09:25:02;;;;;;;13.32;7.25;;;7.10;99.90;;;;;;5046233;28;20060;-70
2022/12/13 09:28:07;;;;;;;11.05;6.40;;;7.30;99.90;;;;;;5041619;28;20060;-71
2022/12/13 09:31:15;;;;;;;11.70;6.85;;;7.50;99.90;;;;;;5033056;28;20044;-71
2022/12/13 09:34:19;;;;;;;11.35;5.70;;;7.70;99.90;;;;;;5035409;28;20053;-71
2022/12/13 09:37:23;;;;;;;9.77;5.55;;;7.70;99.90;;;;;;5030651;28;20056;-72
2022/12/13 09:40:29;;;;;;;7.95;4.03;;;8.00;99.90;;;;;;5041195;28;20033;-72
2022/12/13 09:43:36;;;;;;;8.13;4.07;;;8.00;99.90;;;;;;5044453;28;20488;-72
2022/12/13 09:46:43;;;;;;;7.53;3.78;;;7.80;99.90;;;;;;5041203;28;20045;-72
2022/12/13 09:49:48;;;;;;;5.55;4.13;;;7.70;99.90;;;;;;5038514;28;20042;-72
2022/12/13 09:52:53;;;;;;;8.55;4.38;;;7.90;99.90;;;;;;5039502;28;20051;-72
2022/12/13 09:55:58;;;;;;;4.82;3.38;;;7.60;99.90;;;;;;5042981;28;20036;-72
2022/12/13 09:59:02;;;;;;;5.90;3.60;;;7.30;99.90;;;;;;5038857;28;20037;-72
2022/12/13 10:02:27;;;;;;;6.45;3.40;;;7.10;99.90;;;;;;5033962;28;20045;-72
2022/12/13 10:05:36;;;;;;;4.85;3.70;;;6.90;99.90;;;;;;5044277;28;20034;-72
2022/12/13 10:08:44;;;;;;;8.30;4.15;;;6.60;99.90;;;;;;5033069;28;20049;-72
2022/12/13 10:11:51;;;;;;;5.43;3.75;;;6.70;99.90;;;;;;5028768;28;20648;-72
2022/12/13 10:15:00;;;;;;;7.28;4.43;;;6.70;99.90;;;;;;5023826;28;20050;-72
2022/12/13 10:18:08;;;;;;;7.60;4.30;;;6.70;99.90;;;;;;5032506;28;20052;-72
2022/12/13 10:21:33;;;;;;;7.30;3.45;;;6.80;99.90;;;;;;5035186;28;20076;-72
2022/12/13 10:24:59;;;;;;;6.35;4.00;;;6.80;99.90;;;;;;5025363;28;20048;-71
2022/12/13 10:28:05;;;;;;;5.95;3.83;;;7.00;99.90;;;;;;5019590;28;20037;-71
2022/12/13 10:31:18;;;;;;;5.55;3.35;;;6.90;99.90;;;;;;5030816;28;20511;-71
2022/12/13 10:34:27;;;;;;;5.15;3.90;;;7.00;99.90;;;;;;5029807;28;20029;-71
2022/12/13 10:37:31;;;;;;;7.78;4.53;;;7.10;99.90;;;;;;5027583;28;20041;-71
2022/12/13 10:40:44;;;;;;;6.88;3.88;;;7.10;99.90;;;;;;5044710;28;20491;-72
2022/12/13 10:44:11;;;;;;;6.38;3.70;;;7.10;99.90;;;;;;5027221;28;20050;-72
2022/12/13 10:47:20;;;;;;;6.03;3.20;;;7.10;99.90;;;;;;5032902;28;20045;-71
2022/12/13 10:50:29;;;;;;;5.00;3.10;;;7.20;99.90;;;;;;5024047;28;20039;-71
2022/12/13 10:53:46;;;;;;;5.07;3.42;;;7.40;99.90;;;;;;5032232;28;20049;-72
2022/12/13 10:56:58;;;;;;;5.75;3.67;;;7.60;99.90;;;;;;5039374;28;20036;-71
2022/12/13 11:00:23;;;;;;;5.47;3.53;;;7.80;99.90;;;;;;5039762;28;20048;-71
2022/12/13 11:03:32;;;;;;;6.15;3.70;;;8.10;99.90;;;;;;5037872;28;20044;-72
2022/12/13 11:06:43;;;;;;;7.30;4.40;;;8.30;99.90;;;;;;5026119;28;20049;-72
2022/12/13 11:09:47;;;;;;;7.40;4.53;;;8.20;99.90;;;;;;5027424;28;20029;-72
2022/12/13 11:13:01;;;;;;;6.72;4.60;;;7.60;99.90;;;;;;5032652;28;20060;-71
2022/12/13 11:16:44;;;;;;;5.63;3.85;;;7.90;99.90;;;;;;5033863;28;20491;-71
2022/12/13 11:19:48;;;;;;;;;;;8.10;99.90;;;;;;5028090;28;20044;-71
2022/12/13 11:23:24;;;;;;;7.07;4.50;;;8.00;99.90;;;;;;5025814;28;20510;-70
2022/12/13 11:26:32;;;;;;;7.18;4.88;;;7.80;99.90;;;;;;5030000;28;20036;-71
2022/12/13 11:30:08;;;;;;;7.25;4.70;;;7.70;99.90;;;;;;5029244;28;20040;-71
2022/12/13 11:33:41;;;;;;;8.98;5.40;;;7.40;99.90;;;;;;5026621;28;20041;-71
2022/12/13 11:37:22;;;;;;;9.85;5.35;;;7.20;99.90;;;;;;5031410;28;20495;-71
2022/12/13 11:40:37;;;;;;;9.88;5.22;;;6.70;99.90;;;;;;5033644;28;20394;-71
2022/12/13 11:43:56;;;;;;;6.88;5.03;;;6.70;99.90;;;;;;5028256;28;20060;-71
2022/12/13 11:47:01;;;;;;;7.85;5.30;;;6.40;99.90;;;;;;5028663;28;20052;-71
2022/12/13 11:50:21;;;;;;;8.40;5.97;;;6.30;99.90;;;;;;5033759;28;20034;-71
2022/12/13 11:53:55;;;;;;;12.82;7.20;;;6.00;99.90;;;;;;5025444;28;20047;-71
2022/12/13 11:57:04;;;;;;;8.43;6.03;;;5.80;99.90;;;;;;5036364;28;20048;-71
2022/12/13 12:00:28;;;;;;;8.27;4.95;;;6.00;99.90;;;;;;5038163;28;20033;-71
2022/12/13 12:03:44;;;;;;;6.47;4.28;;;6.00;99.90;;;;;;5028272;28;20497;-71
2022/12/13 12:06:54;;;;;;;7.85;4.47;;;6.10;99.90;;;;;;5035566;28;20037;-71
2022/12/13 12:10:04;;;;;;;9.52;5.28;;;6.40;99.90;;;;;;5040601;28;20407;-71
2022/12/13 12:13:32;;;;;;;6.90;4.65;;;6.60;99.90;;;;;;5035161;28;20037;-71
2022/12/13 12:16:41;;;;;;;7.20;4.97;;;6.80;99.90;;;;;;5025377;28;20048;-71
2022/12/13 12:19:51;;;;;;;9.60;6.43;;;7.00;99.90;;;;;;5028668;28;20052;-71
2022/12/13 12:23:13;;;;;;;9.75;5.35;;;7.30;99.90;;;;;;5032983;28;20240;-72
2022/12/13 12:26:26;;;;;;;7.38;4.90;;;7.40;99.90;;;;;;5033606;28;20045;-71
2022/12/13 12:30:03;;;;;;;6.65;4.55;;;7.60;99.90;;;;;;5021878;28;20488;-71
2022/12/13 12:33:14;;;;;;;7.78;5.43;;;7.70;99.90;;;;;;5030105;28;20029;-71
2022/12/13 12:36:21;;;;;;;6.47;4.55;;;7.90;99.90;;;;;;5031825;28;20028;-71
2022/12/13 12:39:59;;;;;;;6.00;4.43;;;7.90;99.90;;;;;;5034349;28;20082;-71
2022/12/13 12:43:33;;;;;;;9.13;6.07;;;8.10;99.90;;;;;;5032495;28;20044;-71
2022/12/13 12:47:03;;;;;;;11.20;6.50;;;8.20;99.90;;;;;;5035221;28;20037;-71
2022/12/13 12:50:21;;;;;;;7.75;5.75;;;8.70;99.90;;;;;;5033086;28;20388;-71
2022/12/13 12:53:39;;;;;;;8.77;5.60;;;9.10;99.90;;;;;;5030353;28;20487;-71
2022/12/13 12:56:52;;;;;;;8.27;5.50;;;9.40;99.90;;;;;;5031918;28;20044;-71
2022/12/13 13:00:01;;;;;;;8.00;6.00;;;9.30;99.90;;;;;;5033228;28;20199;-71
2022/12/13 13:03:19;;;;;;;10.73;6.63;;;9.30;99.90;;;;;;5029169;28;20068;-71
2022/12/13 13:06:34;;;;;;;9.23;6.30;;;9.20;99.90;;;;;;5028589;28;20048;-71
2022/12/13 13:09:39;;;;;;;8.18;6.22;;;9.20;99.90;;;;;;5032460;28;20041;-71
2022/12/13 13:12:43;;;;;;;8.25;5.97;;;9.10;99.90;;;;;;5030053;28;20030;-71
2022/12/13 13:15:54;;;;;;;7.97;5.25;;;8.90;99.90;;;;;;5028110;28;20393;-71
2022/12/13 13:19:03;;;;;;;7.60;6.32;;;8.50;99.90;;;;;;5043011;28;20030;-71
2022/12/13 13:22:27;;;;;;;10.60;6.13;;;8.10;99.90;;;;;;5031864;28;20507;-71
2022/12/13 13:25:33;;;;;;;9.02;6.95;;;7.60;99.90;;;;;;5033112;28;20059;-71
2022/12/13 13:28:38;;;;;;;10.88;6.15;;;7.50;99.90;;;;;;5034272;28;20075;-71
2022/12/13 13:32:20;;;;;;;8.35;5.70;;;7.30;99.90;;;;;;5029353;28;20489;-71
2022/12/13 13:35:35;;;;;;;8.82;5.80;;;7.20;99.90;;;;;;5034048;28;20054;-71
2022/12/13 13:38:51;;;;;;;7.70;5.13;;;7.20;99.90;;;;;;5033507;28;20060;-71
2022/12/13 13:42:07;;;;;;;7.50;4.70;;;7.00;99.90;;;;;;5025974;28;20043;-71
2022/12/13 13:45:23;;;;;;;9.05;5.18;;;7.10;99.90;;;;;;5030022;28;20045;-71
2022/12/13 13:48:36;;;;;;;7.45;4.78;;;7.10;99.90;;;;;;5029416;28;20037;-71
2022/12/13 13:52:08;;;;;;;7.93;4.75;;;7.00;99.90;;;;;;5032232;28;20038;-71
2022/12/13 13:55:55;;;;;;;7.50;4.45;;;7.00;99.90;;;;;;5035909;28;20042;-71
2022/12/13 13:59:17;;;;;;;5.95;4.38;;;7.20;99.90;;;;;;5025279;28;20045;-71
2022/12/13 14:02:52;;;;;;;6.90;3.95;;;7.30;99.90;;;;;;5031462;28;20033;-71
2022/12/13 14:06:15;;;;;;;5.35;3.47;;;7.30;99.90;;;;;;5028099;28;20396;-71
2022/12/13 14:09:31;;;;;;;4.60;3.35;;;7.20;99.90;;;;;;5029056;28;20496;-71
2022/12/13 14:13:06;;;;;;;3.90;2.80;;;7.20;99.90;;;;;;5038447;28;20041;-71
2022/12/13 14:16:29;;;;;;;6.00;2.60;;;7.10;99.90;;;;;;5026017;28;20037;-71
2022/12/13 14:20:08;;;;;;;3.33;2.35;;;7.10;99.90;;;;;;5026641;28;20033;-71
2022/12/13 14:23:27;;;;;;;5.13;2.30;;;7.00;99.90;;;;;;5028009;28;20041;-71
2022/12/13 14:26:44;;;;;;;3.40;2.33;;;7.00;99.90;;;;;;5030597;28;20036;-71
2022/12/13 14:29:50;;;;;;;4.50;2.60;;;6.90;99.90;;;;;;5030433;28;20051;-71
2022/12/13 14:32:54;;;;;;;3.25;2.70;;;6.90;99.90;;;;;;5036929;28;20044;-71
2022/12/13 14:36:01;;;;;;;3.60;2.83;;;6.90;99.90;;;;;;5032429;28;20049;-71
2022/12/13 14:39:14;;;;;;;3.70;2.75;;;6.80;99.90;;;;;;5026537;28;20502;-70
2022/12/13 14:42:35;;;;;;;5.22;3.67;;;6.70;99.90;;;;;;5044459;28;20046;-71
2022/12/13 14:45:39;;;;;;;7.57;3.45;;;6.60;99.90;;;;;;5040099;28;20041;-70
2022/12/13 14:48:54;;;;;;;9.60;4.88;;;6.50;99.90;;;;;;5031422;28;20414;-71
2022/12/13 14:52:05;;;;;;;6.35;3.47;;;6.20;99.90;;;;;;5039710;28;20036;-71
2022/12/13 14:55:35;;;;;;;6.45;2.60;;;6.10;99.90;;;;;;5038245;28;20041;-70
2022/12/13 14:58:52;;;;;;;3.97;2.10;;;6.00;99.90;;;;;;5028716;28;20388;-71
2022/12/13 15:02:02;;;;;;;3.25;2.15;;;6.00;99.90;;;;;;5039316;28;20040;-71
2022/12/13 15:05:07;;;;;;;3.63;2.00;;;6.00;99.90;;;;;;5035149;28;20056;-71
2022/12/13 15:08:17;;;;;;;3.45;2.20;;;5.90;99.90;;;;;;5030403;28;20052;-71
2022/12/13 15:11:22;;;;;;;4.72;2.25;;;6.00;99.90;;;;;;5047392;28;20029;-71
2022/12/13 15:14:26;;;;;;;3.22;2.25;;;6.00;99.90;;;;;;5030672;28;20053;-71
2022/12/13 15:17:36;;;;;;;3.15;2.35;;;5.90;99.90;;;;;;5030272;28;20054;-71
2022/12/13 15:20:54;;;;;;;3.70;2.50;;;5.80;99.90;;;;;;5044351;28;20053;-70
2022/12/13 15:24:11;;;;;;;2.80;2.22;;;5.70;99.90;;;;;;5044208;28;20500;-70
2022/12/13 15:27:20;;;;;;;4.28;2.33;;;5.80;99.90;;;;;;5030396;28;20388;-70
2022/12/13 15:30:24;;;;;;;3.88;2.50;;;5.80;99.90;;;;;;5029567;28;20388;-70
2022/12/13 15:33:31;;;;;;;3.92;3.00;;;5.80;99.90;;;;;;5030797;28;20475;-71
2022/12/13 15:36:37;;;;;;;4.18;2.90;;;5.80;99.90;;;;;;5035873;28;20033;-70
2022/12/13 15:39:44;;;;;;;4.68;3.17;;;5.80;99.90;;;;;;5027352;28;20036;-70
2022/12/13 15:42:49;;;;;;;4.88;3.45;;;5.80;99.90;;;;;;5027867;28;20064;-70
2022/12/13 15:45:53;;;;;;;4.13;3.53;;;5.80;99.90;;;;;;5026968;28;20044;-70
2022/12/13 15:49:01;;;;;;;4.65;3.45;;;5.80;99.90;;;;;;5038205;28;20060;-71
2022/12/13 15:52:14;;;;;;;5.18;3.70;;;5.70;99.90;;;;;;5031772;28;20503;-71
2022/12/13 15:55:18;;;;;;;6.25;4.07;;;5.70;99.90;;;;;;5029767;28;20033;-71
2022/12/13 15:58:28;;;;;;;6.93;3.80;;;5.70;99.90;;;;;;5030193;28;20049;-70
2022/12/13 16:01:35;;;;;;;4.60;3.85;;;5.70;99.90;;;;;;5033039;28;20176;-70
2022/12/13 16:04:39;;;;;;;5.07;3.70;;;5.70;99.90;;;;;;5038768;28;20447;-71
2022/12/13 16:07:49;;;;;;;5.10;3.05;;;5.70;99.90;;;;;;5029711;28;20045;-71
2022/12/13 16:10:53;;;;;;;4.97;3.75;;;5.70;99.90;;;;;;5027719;28;20129;-70
2022/12/13 16:14:29;;;;;;;4.57;3.58;;;5.70;99.90;;;;;;5030287;28;20044;-70
2022/12/13 16:17:33;;;;;;;5.05;3.95;;;5.60;99.90;;;;;;5034624;28;20653;-70
2022/12/13 16:20:37;;;;;;;3.67;2.92;;;5.70;99.90;;;;;;5033759;28;20048;-70
2022/12/13 16:23:41;;;;;;;7.63;4.00;;;5.70;99.90;;;;;;5030051;28;20045;-70
2022/12/13 16:26:48;;;;;;;5.03;3.95;;;5.80;99.90;;;;;;5027694;28;20036;-70
2022/12/13 16:29:52;;;;;;;5.97;4.10;;;5.90;99.90;;;;;;5026674;28;20040;-70
2022/12/13 16:32:56;;;;;;;8.35;5.22;;;6.00;99.90;;;;;;5030397;28;20392;-70
2022/12/13 16:36:00;;;;;;;7.40;5.50;;;6.10;99.90;;;;;;5027299;28;20038;-70
2022/12/13 16:39:09;;;;;;;6.75;5.07;;;6.10;99.90;;;;;;5032684;28;20476;-71